createdAt,value
2022-12-25T00:01:16.947Z,6.7
2022-12-25T00:03:47.136Z,6.8
2022-12-25T00:06:16.999Z,6.8
2022-12-25T00:08:47.079Z,6.9
2022-12-25T00:13:47.083Z,6.8
2022-12-25T00:16:17.147Z,6.9
2022-12-25T00:18:47.106Z,6.9
2022-12-25T00:21:17.141Z,6.9
2022-12-25T00:23:47.173Z,6.9
2022-12-25T00:26:17.200Z,6.9
2022-12-25T00:28:47.223Z,6.9
2022-12-25T00:31:17.276Z,7
2022-12-25T00:33:47.271Z,7.1
2022-12-25T00:36:17.281Z,7.2
2022-12-25T00:38:47.303Z,7.2
2022-12-25T00:46:17.505Z,7.3
2022-12-25T00:48:47.388Z,7.4
2022-12-25T00:51:17.407Z,7.4
2022-12-25T00:53:47.448Z,7.5
2022-12-25T00:56:17.487Z,7.5
2022-12-25T00:58:47.490Z,7.5
2022-12-25T01:01:17.697Z,7.5
2022-12-25T01:06:17.577Z,7.7
2022-12-25T01:08:47.588Z,7.7
2022-12-25T01:11:17.705Z,7.7
2022-12-25T01:13:47.655Z,7.8
2022-12-25T01:16:17.784Z,7.9
2022-12-25T01:18:47.686Z,7.9
2022-12-25T01:21:17.748Z,7.9
2022-12-25T01:23:47.742Z,8
2022-12-25T01:28:47.769Z,8
2022-12-25T01:33:47.828Z,8.1
2022-12-25T01:38:47.867Z,8.1
2022-12-25T01:41:17.890Z,8.1
2022-12-25T01:46:17.987Z,8.2
2022-12-25T01:48:47.951Z,8.2
2022-12-25T01:51:17.986Z,8.2
2022-12-25T01:53:48.023Z,8.2
2022-12-25T01:56:18.035Z,8.2
2022-12-25T01:58:48.050Z,8.2
2022-12-25T02:03:48.101Z,8.2
2022-12-25T02:11:18.176Z,8.3
2022-12-25T02:13:48.230Z,8.39
2022-12-25T02:16:18.330Z,8.39
2022-12-25T02:21:18.276Z,8.39
2022-12-25T02:23:48.315Z,8.39
2022-12-25T02:28:48.336Z,8.3
2022-12-25T02:31:18.472Z,8.3
2022-12-25T02:36:18.396Z,8.1
2022-12-25T02:38:48.437Z,8.2
2022-12-25T02:43:48.506Z,8
2022-12-25T02:46:18.603Z,8
2022-12-25T02:48:48.533Z,8
2022-12-25T02:53:48.576Z,8.2
2022-12-25T02:56:18.590Z,8.1
2022-12-25T03:01:18.765Z,8.1
2022-12-25T03:03:48.839Z,8.1
2022-12-25T03:06:18.680Z,8.1
2022-12-25T03:08:48.745Z,8.1
2022-12-25T03:13:48.768Z,8.1
2022-12-25T03:16:18.821Z,8.1
2022-12-25T03:18:48.824Z,8.2
2022-12-25T03:21:18.844Z,8.2
2022-12-25T03:23:48.856Z,8.3
2022-12-25T03:28:48.906Z,8.3
2022-12-25T03:31:19.080Z,8.3
2022-12-25T03:33:48.948Z,8.39
2022-12-25T03:36:19.001Z,8.3
2022-12-25T03:38:49.023Z,8.3
2022-12-25T03:41:19.038Z,8.39
2022-12-25T03:43:49.051Z,8.39
2022-12-25T03:46:19.181Z,8.5
2022-12-25T03:48:49.117Z,8.5
2022-12-25T03:51:19.135Z,8.6
2022-12-25T03:53:49.121Z,8.6
2022-12-25T03:56:19.189Z,8.6
2022-12-25T03:58:49.235Z,8.6
2022-12-25T04:01:19.317Z,8.5
2022-12-25T04:03:49.347Z,8.5
2022-12-25T04:06:19.251Z,8.5
2022-12-25T04:08:49.281Z,8.39
2022-12-25T04:13:49.336Z,8.5
2022-12-25T04:16:19.444Z,8.6
2022-12-25T04:21:19.407Z,8.6
2022-12-25T04:26:19.453Z,8.6
2022-12-25T04:28:49.475Z,8.7
2022-12-25T04:31:19.648Z,8.7
2022-12-25T04:33:49.514Z,8.8
2022-12-25T04:36:19.675Z,8.7
2022-12-25T04:38:49.602Z,8.7
2022-12-25T04:41:19.624Z,8.7
2022-12-25T04:43:49.616Z,8.7
2022-12-25T04:46:19.750Z,8.7
2022-12-25T04:48:49.672Z,8.7
2022-12-25T04:51:19.688Z,8.7
2022-12-25T04:53:49.698Z,8.7
2022-12-25T04:56:19.739Z,8.7
2022-12-25T04:58:49.781Z,8.7
2022-12-25T05:01:19.977Z,8.7
2022-12-25T05:03:49.873Z,8.7
2022-12-25T05:08:49.858Z,8.7
2022-12-25T05:11:19.879Z,8.7
2022-12-25T05:13:49.909Z,8.7
2022-12-25T05:16:20.031Z,8.7
2022-12-25T05:18:49.956Z,8.6
2022-12-25T05:21:19.990Z,8.6
2022-12-25T05:23:50.008Z,8.6
2022-12-25T05:26:20.065Z,8.6
2022-12-25T05:28:50.073Z,8.5
2022-12-25T05:31:20.146Z,8.5
2022-12-25T05:33:50.100Z,8.5
2022-12-25T05:36:20.124Z,8.5
2022-12-25T05:38:50.172Z,8.5
2022-12-25T05:41:20.164Z,8.5
2022-12-25T05:43:50.157Z,8.39
2022-12-25T05:48:50.217Z,8.39
2022-12-25T05:51:20.236Z,8.3
2022-12-25T05:53:50.306Z,8.3
2022-12-25T05:56:20.310Z,8.3
2022-12-25T05:58:50.326Z,8.3
2022-12-25T06:06:20.383Z,8.3
2022-12-25T06:08:50.431Z,8.3
2022-12-25T06:11:20.444Z,8.3
2022-12-25T06:13:50.467Z,8.3
2022-12-25T06:16:20.552Z,8.2
2022-12-25T06:18:50.503Z,8.2
2022-12-25T06:21:20.512Z,8.1
2022-12-25T06:26:20.585Z,8.1
2022-12-25T06:28:50.603Z,8.1
2022-12-25T06:31:20.699Z,8.1
2022-12-25T06:33:50.660Z,8.1
2022-12-25T06:38:50.706Z,8
2022-12-25T06:43:50.772Z,7.9
2022-12-25T06:46:20.836Z,7.8
2022-12-25T06:51:20.815Z,7.7
2022-12-25T06:53:50.885Z,7.8
2022-12-25T06:56:20.874Z,7.7
2022-12-25T07:01:21.113Z,7.7
2022-12-25T07:03:50.923Z,7.7
2022-12-25T07:08:51.007Z,7.8
2022-12-25T07:11:20.998Z,7.8
2022-12-25T07:13:51.038Z,7.8
2022-12-25T07:16:21.145Z,7.8
2022-12-25T07:21:21.117Z,7.8
2022-12-25T07:23:51.121Z,7.9
2022-12-25T07:28:51.169Z,7.9
2022-12-25T07:31:21.211Z,7.9
2022-12-25T07:33:51.219Z,8
2022-12-25T07:36:21.241Z,8
2022-12-25T07:38:51.251Z,8
2022-12-25T07:41:21.305Z,8.1
2022-12-25T07:43:51.322Z,8.1
2022-12-25T07:48:51.354Z,8.1
2022-12-25T07:51:21.374Z,8.1
2022-12-25T07:58:51.453Z,8.2
2022-12-25T08:01:21.697Z,8.1
2022-12-25T08:03:51.661Z,8.2
2022-12-25T08:08:51.573Z,8.2
2022-12-25T08:11:21.587Z,8.2
2022-12-25T08:13:51.584Z,8.2
2022-12-25T08:16:21.690Z,8.2
2022-12-25T08:23:51.690Z,8.3
2022-12-25T08:28:51.743Z,8.2
2022-12-25T08:31:21.981Z,8.3
2022-12-25T08:33:51.772Z,8.3
2022-12-25T08:36:21.786Z,8.3
2022-12-25T08:41:21.836Z,8.2
2022-12-25T08:46:21.943Z,8.2
2022-12-25T08:48:51.918Z,8.2
2022-12-25T08:51:21.932Z,8.3
2022-12-25T08:53:51.965Z,8.3
2022-12-25T08:56:22.003Z,8.39
2022-12-25T08:58:52.030Z,8.3
2022-12-25T09:01:22.271Z,8.39
2022-12-25T09:03:52.174Z,8.39
2022-12-25T09:06:22.144Z,8.39
2022-12-25T09:08:52.271Z,8.3
2022-12-25T09:11:22.121Z,8.39
2022-12-25T09:13:52.158Z,8.39
2022-12-25T09:18:52.190Z,8.39
2022-12-25T09:21:22.212Z,8.5
2022-12-25T09:23:52.253Z,8.39
2022-12-25T09:26:22.269Z,8.5
2022-12-25T09:28:52.832Z,8.5
2022-12-25T09:31:22.623Z,8.5
2022-12-25T09:33:52.347Z,8.5
2022-12-25T09:36:22.374Z,8.5
2022-12-25T09:38:52.384Z,8.5
2022-12-25T09:41:22.466Z,8.5
2022-12-25T09:46:22.531Z,8.6
2022-12-25T09:48:52.495Z,8.6
2022-12-25T09:51:22.497Z,8.6
2022-12-25T09:56:22.562Z,8.6
2022-12-25T10:01:22.731Z,8.6
2022-12-25T10:06:22.701Z,8.7
2022-12-25T10:08:52.684Z,8.6
2022-12-25T10:11:22.715Z,8.7
2022-12-25T10:13:52.756Z,8.7
2022-12-25T10:16:22.808Z,8.7
2022-12-25T10:18:52.770Z,8.7
2022-12-25T10:21:22.796Z,8.7
2022-12-25T10:23:52.825Z,8.7
2022-12-25T10:28:52.853Z,8.7
2022-12-25T10:31:22.962Z,8.7
2022-12-25T10:33:52.924Z,8.6
2022-12-25T10:36:22.971Z,8.7
2022-12-25T10:38:52.966Z,8.7
2022-12-25T10:43:53.007Z,8.7
2022-12-25T10:46:23.067Z,8.7
2022-12-25T10:48:53.071Z,8.7
2022-12-25T10:51:23.084Z,8.8
2022-12-25T11:06:23.199Z,8.8
2022-12-25T11:08:53.257Z,8.8
2022-12-25T11:11:23.262Z,8.7
2022-12-25T11:13:53.271Z,8.8
2022-12-25T11:18:53.338Z,8.8
2022-12-25T11:21:23.364Z,8.8
2022-12-25T11:23:53.353Z,8.8
2022-12-25T11:26:23.406Z,8.8
2022-12-25T11:28:53.430Z,8.8
2022-12-25T11:31:23.515Z,8.8
2022-12-25T11:33:53.454Z,8.8
2022-12-25T11:36:23.489Z,8.8
2022-12-25T11:38:53.535Z,8.8
2022-12-25T11:46:23.661Z,8.8
2022-12-25T11:48:53.604Z,8.89
2022-12-25T11:51:23.634Z,8.8
2022-12-25T11:56:23.696Z,8.89
2022-12-25T11:58:53.725Z,8.89
2022-12-25T12:01:23.776Z,8.89
2022-12-25T12:08:53.833Z,9.1
2022-12-25T12:18:53.941Z,9
2022-12-25T12:23:53.955Z,9
2022-12-25T12:26:23.980Z,9
2022-12-25T12:28:53.983Z,9
2022-12-25T12:31:24.050Z,9
2022-12-25T12:33:54.035Z,9.2
2022-12-25T12:36:29.218Z,9.2
2022-12-25T12:38:54.079Z,9.2
2022-12-25T12:43:54.154Z,9.1
2022-12-25T12:46:30.141Z,9.1
2022-12-25T12:48:54.213Z,9.1
2022-12-25T12:51:24.205Z,9.2
2022-12-25T12:56:24.259Z,9.1
2022-12-25T12:58:54.297Z,9.1
2022-12-25T13:01:24.345Z,9.1
2022-12-25T13:06:24.356Z,9.1
2022-12-25T13:08:54.374Z,9.1
2022-12-25T13:11:24.410Z,9.1
2022-12-25T13:13:54.442Z,9.1
2022-12-25T13:16:24.542Z,9.1
2022-12-25T13:21:24.492Z,9
2022-12-25T13:23:54.505Z,9
2022-12-25T13:26:24.539Z,9
2022-12-25T13:31:24.662Z,9.1
2022-12-25T13:33:54.617Z,9.1
2022-12-25T13:36:24.645Z,9.1
2022-12-25T13:38:54.631Z,9.1
2022-12-25T13:41:24.663Z,9.1
2022-12-25T13:43:54.690Z,9.1
2022-12-25T13:46:24.811Z,9.2
2022-12-25T13:48:54.726Z,9.1
2022-12-25T13:53:54.797Z,9.1
2022-12-25T13:56:24.813Z,9.2
2022-12-25T14:01:25.053Z,9.1
2022-12-25T14:03:54.890Z,9.2
2022-12-25T14:06:24.906Z,9.2
2022-12-25T14:08:54.924Z,9.2
2022-12-25T14:11:24.991Z,9.1
2022-12-25T14:13:54.973Z,9.1
2022-12-25T14:16:25.012Z,9.1
2022-12-25T14:18:55.011Z,9.2
2022-12-25T14:21:25.044Z,9.2
2022-12-25T14:23:55.076Z,9.2
2022-12-25T14:26:25.090Z,9.2
2022-12-25T14:28:55.111Z,9.1
2022-12-25T14:31:25.369Z,9.1
2022-12-25T14:33:55.167Z,9.1
2022-12-25T14:38:55.186Z,9.1
2022-12-25T14:41:26.352Z,9.6
2022-12-25T14:43:55.262Z,9.89
2022-12-25T14:48:55.324Z,10.1
2022-12-25T14:51:25.335Z,10.3
2022-12-25T14:53:55.337Z,10.2
2022-12-25T14:56:25.367Z,10.3
2022-12-25T15:01:25.548Z,10.2
2022-12-25T15:03:55.523Z,10.1
2022-12-25T15:06:25.537Z,9.89
2022-12-25T15:08:55.490Z,9.89
2022-12-25T15:11:25.520Z,10.3
2022-12-25T15:16:25.705Z,10.4
2022-12-25T15:21:25.621Z,10.7
2022-12-25T15:23:55.617Z,10.4
2022-12-25T15:26:25.640Z,10.5
2022-12-25T15:28:55.715Z,10.6
2022-12-25T15:31:25.793Z,10.4
2022-12-25T15:38:55.782Z,10.4
2022-12-25T15:41:25.785Z,10.4
2022-12-25T15:43:55.797Z,10.3
2022-12-25T15:46:25.931Z,10.3
2022-12-25T15:48:55.859Z,10.5
2022-12-25T15:51:25.896Z,10.5
2022-12-25T15:53:55.923Z,10.5
2022-12-25T15:58:55.996Z,10.3
2022-12-25T16:01:26.122Z,10.5
2022-12-25T16:03:56.049Z,10.6
2022-12-25T16:06:26.078Z,10.3
2022-12-25T16:08:56.057Z,10.6
2022-12-25T16:11:26.080Z,10.4
2022-12-25T16:13:56.112Z,10.2
2022-12-25T16:16:26.194Z,10.4
2022-12-25T16:18:56.143Z,10.3
2022-12-25T16:21:26.158Z,10.5
2022-12-25T16:26:26.226Z,10.4
2022-12-25T16:28:56.235Z,10.5
2022-12-25T16:31:26.330Z,10.4
2022-12-25T16:33:56.278Z,10.2
2022-12-25T16:36:27.184Z,10.2
2022-12-25T16:38:56.368Z,10.3
2022-12-25T16:41:26.356Z,10.4
2022-12-25T16:43:56.390Z,10.1
2022-12-25T16:46:26.481Z,10.2
2022-12-25T16:48:56.430Z,10.2
2022-12-25T16:51:26.442Z,10.1
2022-12-25T16:53:56.486Z,9.89
2022-12-25T16:56:26.524Z,9.8
2022-12-25T16:58:56.522Z,9.6
2022-12-25T17:01:26.716Z,9.39
2022-12-25T17:03:56.616Z,9.3
2022-12-25T17:06:26.607Z,9.3
2022-12-25T17:08:56.617Z,9.3
2022-12-25T17:11:26.651Z,9.2
2022-12-25T17:13:56.661Z,9.1
2022-12-25T17:16:26.809Z,9.1
2022-12-25T17:18:56.741Z,9
2022-12-25T17:21:26.769Z,9
2022-12-25T17:24:01.661Z,9
2022-12-25T17:26:26.780Z,9
2022-12-25T17:28:56.801Z,9
2022-12-25T17:31:26.950Z,9
2022-12-25T17:33:56.871Z,8.8
2022-12-25T17:36:26.891Z,8.8
2022-12-25T17:38:56.901Z,8.7
2022-12-25T17:41:26.919Z,8.7
2022-12-25T17:43:56.945Z,8.8
2022-12-25T17:46:27.102Z,8.8
2022-12-25T17:48:57.001Z,8.8
2022-12-25T17:51:27.028Z,8.8
2022-12-25T17:53:57.081Z,8.8
2022-12-25T17:56:27.105Z,8.8
2022-12-25T17:58:57.125Z,8.8
2022-12-25T18:01:27.284Z,8.7
2022-12-25T18:03:57.184Z,8.8
2022-12-25T18:06:27.175Z,8.8
2022-12-25T18:08:57.182Z,8.8
2022-12-25T18:11:27.206Z,8.7
2022-12-25T18:13:57.246Z,8.7
2022-12-25T18:16:27.468Z,8.7
2022-12-25T18:18:57.286Z,8.7
2022-12-25T18:21:27.307Z,8.7
2022-12-25T18:23:57.328Z,8.7
2022-12-25T18:26:27.353Z,8.8
2022-12-25T18:28:57.385Z,8.8
2022-12-25T18:33:57.430Z,8.8
2022-12-25T18:36:27.453Z,8.7
2022-12-25T18:38:57.464Z,8.7
2022-12-25T18:41:27.494Z,8.7
2022-12-25T18:43:57.556Z,8.7
2022-12-25T18:46:27.818Z,8.7
2022-12-25T18:51:33.151Z,8.7
2022-12-25T18:53:57.664Z,8.7
2022-12-25T19:01:27.867Z,8.8
2022-12-25T19:04:04.500Z,8.8
2022-12-25T19:06:27.777Z,8.8
2022-12-25T19:08:57.812Z,8.8
2022-12-25T19:11:27.805Z,8.8
2022-12-25T19:13:57.817Z,8.89
2022-12-25T19:16:27.880Z,8.89
2022-12-25T19:18:57.905Z,8.89
2022-12-25T19:21:27.878Z,8.89
2022-12-25T19:23:57.903Z,8.8
2022-12-25T19:26:27.923Z,8.8
2022-12-25T19:31:28.019Z,8.8
2022-12-25T19:33:57.991Z,8.8
2022-12-25T19:36:28.008Z,8.8
2022-12-25T19:38:58.040Z,8.8
2022-12-25T19:41:28.077Z,8.8
2022-12-25T19:43:58.134Z,8.8
2022-12-25T19:46:28.199Z,8.8
2022-12-25T19:48:58.152Z,8.8
2022-12-25T19:53:58.171Z,8.8
2022-12-25T19:56:28.252Z,8.7
2022-12-25T19:58:58.242Z,8.7
2022-12-25T20:01:28.455Z,8.7
2022-12-25T20:03:58.277Z,8.7
2022-12-25T20:06:28.319Z,8.7
2022-12-25T20:08:58.329Z,8.7
2022-12-25T20:11:28.339Z,8.7
2022-12-25T20:13:58.359Z,8.7
2022-12-25T20:16:28.480Z,8.7
2022-12-25T20:18:58.466Z,8.7
2022-12-25T20:21:28.429Z,8.7
2022-12-25T20:23:58.481Z,8.7
2022-12-25T20:26:28.485Z,8.7
2022-12-25T20:28:58.508Z,8.8
2022-12-25T20:31:28.653Z,8.7
2022-12-25T20:33:58.550Z,8.8
2022-12-25T20:36:34.650Z,8.7
2022-12-25T20:38:58.601Z,8.7
2022-12-25T20:41:29.730Z,8.7
2022-12-25T20:43:58.676Z,8.8
2022-12-25T20:51:28.717Z,8.8
2022-12-25T20:53:58.760Z,8.7
2022-12-25T20:56:28.787Z,8.7
2022-12-25T20:58:58.803Z,8.8
2022-12-25T21:01:28.964Z,8.89
2022-12-25T21:03:58.953Z,8.8
2022-12-25T21:06:28.883Z,8.8
2022-12-25T21:08:58.898Z,8.89
2022-12-25T21:11:28.907Z,8.89
2022-12-25T21:13:58.949Z,8.89
2022-12-25T21:16:29.003Z,8.89
2022-12-25T21:23:59.031Z,9
2022-12-25T21:26:29.071Z,8.89
2022-12-25T21:28:59.089Z,9
2022-12-25T21:31:29.275Z,9
2022-12-25T21:33:59.133Z,9
2022-12-25T21:36:29.198Z,9
2022-12-25T21:41:29.221Z,9
2022-12-25T21:43:59.223Z,9
2022-12-25T21:46:29.460Z,9
2022-12-25T21:48:59.254Z,8.89
2022-12-25T21:51:29.291Z,9
2022-12-25T21:53:59.336Z,9
2022-12-25T21:56:29.347Z,9
2022-12-25T21:58:59.362Z,9
2022-12-25T22:03:59.428Z,9
2022-12-25T22:06:29.439Z,9
2022-12-25T22:08:59.453Z,9
2022-12-25T22:11:29.508Z,9.1
2022-12-25T22:13:59.505Z,9
2022-12-25T22:16:29.555Z,9
2022-12-25T22:18:59.547Z,9.1
2022-12-25T22:23:59.588Z,9.1
2022-12-25T22:26:29.616Z,9.1
2022-12-25T22:28:59.641Z,9.1
2022-12-25T22:36:29.708Z,9.1
2022-12-25T22:38:59.737Z,9.1
2022-12-25T22:41:33.308Z,9.1
2022-12-25T22:44:16.971Z,9.1
2022-12-25T22:46:29.828Z,9.1
2022-12-25T22:51:29.861Z,9.1
2022-12-25T22:54:03.610Z,9.1
2022-12-25T22:56:29.898Z,9.1
2022-12-25T23:01:30.039Z,9.1
2022-12-25T23:03:59.990Z,9.2
2022-12-25T23:09:00.039Z,9.2
2022-12-25T23:11:30.085Z,9.1
2022-12-25T23:14:00.060Z,9.1
2022-12-25T23:16:30.147Z,9.1
2022-12-25T23:19:00.130Z,9.2
2022-12-25T23:21:30.142Z,9.1
2022-12-25T23:26:30.184Z,9.2
2022-12-25T23:31:30.255Z,9.2
2022-12-25T23:34:00.262Z,9.2
2022-12-25T23:36:30.273Z,9.2
2022-12-25T23:39:04.835Z,9.2
2022-12-25T23:44:00.365Z,9.2
2022-12-25T23:46:30.436Z,9.2
2022-12-25T23:51:30.438Z,9.2
2022-12-25T23:54:00.444Z,9.2
2022-12-25T23:56:30.487Z,9.2
